Time;durP1;ratioP1;P1;durP2;ratioP2;P2;SDS_P1;SDS_P2;PMS_P1;PMS_P2;Temp;Humidity;BMP_temperature;BMP_pressure;BME280_temperature;BME280_humidity;BME280_pressure;Samples;Min_cycle;Max_cycle;Signal;HPM_P1;HPM_P2
2021/09/26 00:02:19;;;;;;;8.55;4.35;;;;;;;15.28;95.44;99605.45;1723282;82;21028;-84
2021/09/26 00:04:45;;;;;;;4.62;4.15;;;;;;;15.26;95.40;99607.08;1723156;82;21029;-83
2021/09/26 00:07:11;;;;;;;4.37;3.98;;;;;;;15.21;95.45;99601.70;1742913;81;21020;-83
2021/09/26 00:09:38;;;;;;;5.72;4.40;;;;;;;15.16;95.49;99608.52;1744372;81;21019;-83
2021/09/26 00:12:05;;;;;;;3.98;3.65;;;;;;;15.11;95.57;99603.13;1744585;82;21671;-83
2021/09/26 00:14:31;;;;;;;4.17;3.77;;;;;;;15.08;95.71;99621.30;1744319;81;20959;-83
2021/09/26 00:16:58;;;;;;;6.00;4.20;;;;;;;15.05;95.85;99606.98;1734931;81;21104;-83
2021/09/26 00:19:26;;;;;;;5.08;3.77;;;;;;;15.03;95.86;99619.17;1723082;82;21541;-84
2021/09/26 00:21:53;;;;;;;10.63;3.83;;;;;;;15.01;95.86;99620.02;1723333;82;21559;-84
2021/09/26 00:24:19;;;;;;;5.65;4.05;;;;;;;15.00;95.84;99604.30;1744616;82;20995;-82
2021/09/26 00:26:46;;;;;;;6.55;5.58;;;;;;;14.99;95.83;99606.74;1734723;82;20984;-84
2021/09/26 00:29:12;;;;;;;6.55;4.62;;;;;;;14.97;95.79;99611.62;1715351;82;21043;-79
2021/09/26 00:31:38;;;;;;;5.47;4.30;;;;;;;14.98;95.67;99613.24;1713327;83;20979;-82
2021/09/26 00:34:05;;;;;;;7.30;4.70;;;;;;;14.97;95.58;99622.45;1725254;82;20971;-83
2021/09/26 00:36:31;;;;;;;4.33;3.92;;;;;;;14.95;95.42;99626.00;1736069;82;21583;-83
2021/09/26 00:38:57;;;;;;;5.90;4.58;;;;;;;14.91;95.48;99634.42;1713368;83;21004;-83
2021/09/26 00:41:24;;;;;;;5.78;3.58;;;;;;;14.88;95.57;99630.09;1715240;82;21768;-83
2021/09/26 00:43:50;;;;;;;6.12;4.28;;;;;;;14.87;95.70;99628.50;1713409;82;20991;-85
2021/09/26 00:46:16;;;;;;;5.67;4.20;;;;;;;14.87;95.71;99627.92;1724727;82;21508;-86
2021/09/26 00:48:43;;;;;;;5.17;4.30;;;;;;;14.89;95.74;99628.47;1713526;83;21007;-77
2021/09/26 00:51:12;;;;;;;7.45;4.28;;;;;;;14.90;95.52;99634.70;1714355;83;21010;-78
2021/09/26 00:53:40;;;;;;;6.75;5.10;;;;;;;14.90;95.42;99631.45;1726005;82;21541;-77
2021/09/26 00:56:07;;;;;;;8.10;4.15;;;;;;;14.91;95.38;99640.38;1674668;85;20987;-76
2021/09/26 00:58:34;;;;;;;8.60;4.30;;;;;;;14.90;95.33;99646.88;1663083;84;21555;-79
2021/09/26 01:01:00;;;;;;;5.75;4.10;;;;;;;14.87;95.31;99648.23;1684925;83;20936;-79
2021/09/26 01:03:27;;;;;;;4.67;4.28;;;;;;;14.86;95.38;99637.16;1686218;84;21060;-76
2021/09/26 01:06:04;;;;;;;7.72;4.28;;;;;;;14.86;95.39;99641.77;1681471;84;21122;-75
2021/09/26 01:08:36;;;;;;;4.78;3.77;;;;;;;14.86;95.42;99632.28;1656408;85;20955;-81
2021/09/26 01:11:13;;;;;;;8.70;5.92;;;;;;;14.88;95.44;99633.61;1684529;85;20990;-79
2021/09/26 01:14:09;;;;;;;6.08;4.30;;;;;;;14.90;95.27;99646.34;1686886;84;20994;-78
2021/09/26 01:16:39;;;;;;;10.05;4.75;;;;;;;14.90;95.12;99642.28;1682025;84;21671;-78
2021/09/26 01:19:27;;;;;;;9.80;4.03;;;;;;;14.92;95.11;99644.69;1681540;84;22261;-81
2021/09/26 01:22:01;;;;;;;5.95;4.33;;;;;;;14.91;94.98;99651.22;1687772;85;20966;-78
2021/09/26 01:24:50;;;;;;;4.65;3.83;;;;;;;14.91;94.94;99644.44;1677979;84;21002;-80
2021/09/26 01:27:57;;;;;;;5.55;4.08;;;;;;;14.91;94.78;99649.32;1692933;84;20998;-79
2021/09/26 01:30:45;;;;;;;4.65;4.10;;;;;;;14.91;94.71;99653.92;1687719;84;20990;-76
2021/09/26 01:33:32;;;;;;;4.22;3.77;;;;;;;14.89;94.42;99649.31;1687918;85;21803;-80
2021/09/26 01:36:13;;;;;;;8.58;4.62;;;;;;;14.83;94.24;99658.00;1674320;84;21543;-78
2021/09/26 01:38:54;;;;;;;5.28;4.10;;;;;;;14.78;94.31;99667.50;1676279;85;20930;-78
2021/09/26 01:41:40;;;;;;;6.00;4.65;;;;;;;14.74;94.32;99667.26;1687581;84;20962;-75
2021/09/26 01:44:21;;;;;;;6.00;4.12;;;;;;;14.74;94.35;99680.80;1687643;84;20986;-76
2021/09/26 01:46:50;;;;;;;6.62;4.00;;;;;;;14.72;94.41;99685.66;1690186;84;22153;-80
2021/09/26 01:49:21;;;;;;;5.85;4.80;;;;;;;14.70;94.42;99682.98;1704101;84;21583;-83
2021/09/26 01:51:47;;;;;;;6.78;5.03;;;;;;;14.68;94.53;99686.50;1679908;85;21006;-76
2021/09/26 01:54:16;;;;;;;6.35;4.45;;;;;;;14.66;94.54;99696.27;1667903;86;21070;-80
2021/09/26 01:56:43;;;;;;;7.58;4.92;;;;;;;14.61;94.76;99696.83;1652738;85;21049;-80
2021/09/26 01:59:11;;;;;;;9.60;4.53;;;;;;;14.59;94.96;99691.67;1652057;85;21062;-80
2021/09/26 02:01:41;;;;;;;8.20;4.60;;;;;;;14.56;95.05;99699.00;1659600;85;21093;-82
2021/09/26 02:04:08;;;;;;;7.37;4.97;;;;;;;14.53;95.34;99707.66;1659191;85;21029;-82
2021/09/26 02:06:38;;;;;;;4.90;4.40;;;;;;;14.51;95.71;99696.31;1667791;85;21074;-77
2021/09/26 02:09:06;;;;;;;5.12;4.10;;;;;;;14.49;95.92;99693.06;1687199;84;21037;-78
2021/09/26 02:11:33;;;;;;;9.13;4.80;;;;;;;14.48;96.15;99700.12;1663026;85;21132;-79
2021/09/26 02:14:01;;;;;;;7.42;4.47;;;;;;;14.47;96.37;99704.72;1661637;85;21022;-77
2021/09/26 02:16:28;;;;;;;9.98;5.03;;;;;;;14.45;96.64;99696.05;1688450;84;20927;-79
2021/09/26 02:18:54;;;;;;;6.08;5.00;;;;;;;14.43;96.98;99700.12;1708573;83;20995;-80
2021/09/26 02:21:20;;;;;;;5.37;4.87;;;;;;;14.43;97.08;99700.95;1709377;83;20920;-75
2021/09/26 02:23:47;;;;;;;5.08;4.58;;;;;;;14.42;97.29;99705.27;1690966;84;21475;-76
2021/09/26 02:26:13;;;;;;;5.90;4.62;;;;;;;14.40;97.47;99705.00;1708532;84;20990;-80
2021/09/26 02:28:40;;;;;;;7.03;4.92;;;;;;;14.38;97.47;99708.53;1688481;83;20991;-79
2021/09/26 02:31:08;;;;;;;6.10;5.35;;;;;;;14.38;97.62;99712.59;1681111;85;21023;-77
2021/09/26 02:33:37;;;;;;;6.10;4.85;;;;;;;14.38;97.62;99707.72;1683037;84;21043;-75
2021/09/26 02:36:05;;;;;;;4.85;4.35;;;;;;;14.35;97.74;99723.91;1703526;83;21818;-75
2021/09/26 02:38:31;;;;;;;7.47;5.20;;;;;;;14.33;97.78;99722.04;1686273;85;20942;-78
2021/09/26 02:41:06;;;;;;;5.00;4.12;;;;;;;14.30;97.80;99722.57;1681008;85;21030;-78
2021/09/26 02:43:56;;;;;;;7.72;4.50;;;;;;;14.28;98.05;99719.34;1680684;84;21038;-77
2021/09/26 02:46:26;;;;;;;9.33;4.85;;;;;;;14.25;98.23;99729.34;1689963;84;21078;-78
2021/09/26 02:48:52;;;;;;;6.28;5.10;;;;;;;14.23;98.45;99729.36;1704414;84;21235;-79
2021/09/26 02:51:19;;;;;;;8.15;5.15;;;;;;;14.23;98.50;99728.81;1690949;82;21083;-76
2021/09/26 02:53:46;;;;;;;7.20;4.30;;;;;;;14.20;98.52;99727.99;1679440;85;21038;-78
2021/09/26 02:56:12;;;;;;;4.53;3.83;;;;;;;14.24;98.53;99745.86;1655022;85;21049;-77
2021/09/26 02:58:39;;;;;;;7.37;5.15;;;;;;;14.23;98.40;99742.88;1679736;85;20998;-78
2021/09/26 03:01:05;;;;;;;4.65;3.87;;;;;;;14.21;98.31;99739.63;1661582;85;21062;-76
2021/09/26 03:03:32;;;;;;;11.70;4.80;;;;;;;14.18;98.38;99740.19;1657788;85;20969;-81
2021/09/26 03:05:58;;;;;;;10.98;5.40;;;;;;;14.16;98.46;99743.69;1664374;85;21101;-83
2021/09/26 03:08:24;;;;;;;5.42;4.33;;;;;;;14.10;98.55;99747.50;1651979;86;20980;-85
2021/09/26 03:11:00;;;;;;;6.72;4.67;;;;;;;14.07;98.63;99746.67;1633467;86;21018;-88
2021/09/26 03:13:27;;;;;;;11.65;4.87;;;;;;;14.04;98.70;99749.39;1637155;85;21090;-85
2021/09/26 03:15:54;;;;;;;4.78;4.33;;;;;;;14.04;98.74;99748.58;1667385;85;21186;-88
2021/09/26 03:18:21;;;;;;;8.45;4.75;;;;;;;14.04;98.71;99749.39;1661649;85;20958;-87
2021/09/26 03:20:47;;;;;;;6.97;5.62;;;;;;;14.04;98.53;99758.05;1661896;85;20990;-85
2021/09/26 03:23:15;;;;;;;10.10;5.42;;;;;;;14.02;98.34;99756.13;1675807;85;21578;-81
2021/09/26 03:25:41;;;;;;;7.85;4.70;;;;;;;13.96;98.24;99766.95;1679385;85;21047;-80
2021/09/26 03:28:08;;;;;;;7.25;4.80;;;;;;;13.91;98.27;99767.48;1675130;85;21036;-80
2021/09/26 03:30:34;;;;;;;7.35;4.92;;;;;;;13.88;98.42;99766.14;1651930;86;20928;-79
2021/09/26 03:33:01;;;;;;;9.60;4.92;;;;;;;13.85;98.47;99760.47;1652707;85;20946;-81
2021/09/26 03:35:27;;;;;;;4.75;4.20;;;;;;;13.81;98.36;99763.45;1625308;88;21519;-80
2021/09/26 03:37:54;;;;;;;7.55;5.33;;;;;;;13.78;98.31;99769.38;1625360;88;21632;-79
2021/09/26 03:40:20;;;;;;;7.10;5.08;;;;;;;13.75;98.35;99772.09;1608722;88;20977;-79
2021/09/26 03:42:46;;;;;;;10.00;4.78;;;;;;;13.74;98.25;99765.05;1609285;86;21542;-85
2021/09/26 03:45:13;;;;;;;6.60;4.87;;;;;;;13.72;98.12;99761.79;1675727;85;21022;-86
2021/09/26 03:47:39;;;;;;;10.60;5.85;;;;;;;13.68;98.07;99763.41;1661757;85;21006;-88
2021/09/26 03:50:08;;;;;;;9.18;4.87;;;;;;;13.65;98.06;99767.20;1679498;85;21049;-87
2021/09/26 03:52:35;;;;;;;7.97;4.60;;;;;;;13.61;98.07;99776.39;1662552;83;21005;-85
2021/09/26 03:55:04;;;;;;;7.08;4.87;;;;;;;13.57;98.08;99776.66;1697809;84;21591;-87
2021/09/26 03:57:30;;;;;;;6.97;4.22;;;;;;;13.55;98.26;99781.50;1683883;84;21509;-87
2021/09/26 03:59:57;;;;;;;8.25;5.42;;;;;;;13.51;98.43;99770.95;1683897;84;21019;-87
2021/09/26 04:02:23;;;;;;;15.68;5.35;;;;;;;13.49;98.47;99779.86;1693354;84;21847;-84
2021/09/26 04:04:49;;;;;;;6.08;3.98;;;;;;;13.46;98.69;99781.75;1670079;84;21063;-89
2021/09/26 04:07:16;;;;;;;8.13;5.62;;;;;;;13.47;98.81;99794.19;1676288;85;20986;-90
2021/09/26 04:09:42;;;;;;;9.63;5.20;;;;;;;13.44;98.87;99792.00;1656149;85;21583;-90
2021/09/26 04:12:09;;;;;;;8.88;5.05;;;;;;;13.41;98.93;99792.02;1651241;85;21066;-87
2021/09/26 04:14:35;;;;;;;9.13;4.45;;;;;;;13.41;99.08;99798.77;1663844;85;21051;-86
2021/09/26 04:17:01;;;;;;;8.63;5.90;;;;;;;13.39;99.06;99796.85;1675859;85;21564;-81
2021/09/26 04:19:28;;;;;;;17.77;5.78;;;;;;;13.36;99.24;99808.73;1674161;85;21507;-80
2021/09/26 04:21:54;;;;;;;8.55;5.28;;;;;;;13.34;99.40;99799.54;1661485;84;20943;-80
2021/09/26 04:24:20;;;;;;;10.20;4.72;;;;;;;13.34;99.47;99798.19;1671287;84;21023;-81
2021/09/26 04:26:47;;;;;;;10.28;5.00;;;;;;;13.30;99.41;99805.73;1703908;84;21493;-81
2021/09/26 04:29:13;;;;;;;10.05;5.03;;;;;;;13.28;99.55;99800.62;1680199;84;20963;-86
2021/09/26 04:31:39;;;;;;;6.80;4.62;;;;;;;13.27;99.68;99811.67;1675908;85;21053;-86
2021/09/26 04:34:06;;;;;;;7.95;5.15;;;;;;;13.27;99.77;99808.44;1685501;84;21011;-85
2021/09/26 04:36:32;;;;;;;11.45;6.22;;;;;;;13.27;99.84;99804.92;1704218;84;21042;-84
2021/09/26 04:38:58;;;;;;;12.47;5.37;;;;;;;13.30;99.97;99811.95;1639447;85;21764;-85
2021/09/26 04:41:25;;;;;;;11.48;5.15;;;;;;;13.36;99.85;99807.39;1627905;85;21063;-84
2021/09/26 04:43:53;;;;;;;10.10;5.17;;;;;;;13.35;99.51;99838.98;1660390;84;20980;-85
2021/09/26 04:46:19;;;;;;;7.42;4.90;;;;;;;13.31;98.79;99820.34;1682009;84;21611;-83
2021/09/26 04:48:45;;;;;;;8.45;4.85;;;;;;;13.29;98.51;99814.38;1683966;84;20974;-83
2021/09/26 04:51:12;;;;;;;11.20;5.58;;;;;;;13.30;98.53;99830.05;1664785;84;21058;-88
2021/09/26 04:53:38;;;;;;;14.68;5.90;;;;;;;13.31;98.26;99828.44;1650317;84;21496;-88
2021/09/26 04:56:05;;;;;;;8.23;5.85;;;;;;;13.31;98.24;99835.73;1709635;83;21515;-90
2021/09/26 04:58:31;;;;;;;11.30;6.20;;;;;;;13.32;98.22;99836.83;1688342;83;21057;-89
2021/09/26 05:00:58;;;;;;;13.03;6.97;;;;;;;13.35;98.21;99837.64;1663179;85;21630;-89
2021/09/26 05:03:24;;;;;;;7.78;6.55;;;;;;;13.38;98.13;99830.34;1686993;84;21121;-91
2021/09/26 05:05:50;;;;;;;11.33;5.03;;;;;;;13.39;97.95;99849.53;1709403;83;21050;-81
2021/09/26 05:08:16;;;;;;;11.80;5.35;;;;;;;13.42;97.71;99838.75;1691372;84;21043;-82
2021/09/26 05:10:43;;;;;;;9.63;4.62;;;;;;;13.41;97.51;99837.12;1690883;84;21038;-81
2021/09/26 05:13:09;;;;;;;6.95;4.33;;;;;;;13.42;97.45;99844.16;1673789;84;21067;-82
2021/09/26 05:15:35;;;;;;;10.65;4.72;;;;;;;13.41;97.22;99851.45;1709545;83;21148;-80
2021/09/26 05:18:02;;;;;;;11.45;6.25;;;;;;;13.42;97.08;99853.61;1698351;83;21106;-80
2021/09/26 05:20:28;;;;;;;14.05;5.65;;;;;;;13.42;97.10;99854.43;1694008;84;21034;-79
2021/09/26 05:22:54;;;;;;;9.55;4.35;;;;;;;13.43;96.70;99856.56;1681239;85;20982;-81
2021/09/26 05:25:22;;;;;;;7.17;4.33;;;;;;;13.41;96.12;99858.73;1681566;84;21491;-83
2021/09/26 05:27:49;;;;;;;9.98;4.87;;;;;;;13.42;95.99;99858.48;1681192;85;21558;-87
2021/09/26 05:30:15;;;;;;;10.30;5.22;;;;;;;13.43;95.73;99863.32;1662978;85;21050;-85
2021/09/26 05:32:41;;;;;;;11.28;5.50;;;;;;;13.42;95.55;99855.78;1665991;84;21022;-88
2021/09/26 05:35:08;;;;;;;9.58;5.72;;;;;;;13.44;95.64;99866.30;1703105;84;21548;-90
2021/09/26 05:37:35;;;;;;;8.58;4.53;;;;;;;13.43;95.21;99864.67;1692192;83;21025;-90
2021/09/26 05:40:01;;;;;;;11.43;5.75;;;;;;;13.43;94.91;99874.95;1626355;87;21486;-89
2021/09/26 05:42:27;;;;;;;8.00;4.40;;;;;;;13.45;94.39;99874.69;1635087;85;21002;-90
2021/09/26 05:44:54;;;;;;;7.42;3.90;;;;;;;13.45;94.00;99871.98;1662439;85;20995;-89
2021/09/26 05:47:20;;;;;;;13.30;4.90;;;;;;;13.45;93.92;99884.14;1671206;84;21711;-82
2021/09/26 05:49:46;;;;;;;10.13;4.80;;;;;;;13.45;93.13;99878.74;1694452;84;21082;-86
2021/09/26 05:52:12;;;;;;;6.53;4.95;;;;;;;13.48;93.08;99876.31;1700944;83;21746;-83
2021/09/26 05:54:40;;;;;;;16.37;5.72;;;;;;;13.51;92.91;99880.39;1660177;85;20986;-84
2021/09/26 05:57:07;;;;;;;12.50;4.83;;;;;;;13.51;92.25;99882.56;1665268;84;20960;-85
2021/09/26 05:59:38;;;;;;;10.65;4.83;;;;;;;13.51;92.08;99876.34;1697847;84;21307;-84
2021/09/26 06:02:10;;;;;;;13.43;5.30;;;;;;;13.49;92.14;99882.00;1691033;84;21070;-87
2021/09/26 06:04:37;;;;;;;9.23;5.70;;;;;;;13.50;92.31;99883.63;1677864;85;21103;-86
2021/09/26 06:07:04;;;;;;;10.70;5.42;;;;;;;13.54;92.69;99882.56;1715311;83;20950;-83
2021/09/26 06:09:30;;;;;;;8.90;4.60;;;;;;;13.57;92.64;99878.53;1677671;85;21019;-83
2021/09/26 06:11:57;;;;;;;12.45;4.70;;;;;;;13.60;92.29;99876.64;1698002;83;21046;-86
2021/09/26 06:14:23;;;;;;;10.75;7.00;;;;;;;13.60;92.41;99881.51;1660469;85;21081;-88
2021/09/26 06:16:49;;;;;;;10.43;5.12;;;;;;;13.62;92.16;99890.15;1697286;83;21075;-87
2021/09/26 06:19:15;;;;;;;10.28;4.83;;;;;;;13.65;91.66;99882.88;1697583;82;20936;-86
2021/09/26 06:21:43;;;;;;;9.95;4.95;;;;;;;13.70;91.21;99892.90;1716349;82;20928;-88
2021/09/26 06:24:11;;;;;;;7.47;4.70;;;;;;;13.72;91.39;99896.95;1677476;84;21007;-88
2021/09/26 06:26:38;;;;;;;7.97;4.40;;;;;;;13.76;91.22;99892.66;1695596;84;21057;-87
2021/09/26 06:29:04;;;;;;;8.25;4.58;;;;;;;13.79;90.79;99907.52;1707965;84;21845;-85
2021/09/26 06:31:31;;;;;;;14.30;5.03;;;;;;;13.81;90.24;99913.49;1685098;83;20991;-88
2021/09/26 06:33:57;;;;;;;9.58;3.98;;;;;;;13.78;88.94;99907.24;1662160;84;20922;-93
2021/09/26 06:36:24;;;;;;;16.10;4.70;;;;;;;13.75;88.66;99924.00;1698297;84;21534;-89
2021/09/26 06:38:52;;;;;;;10.78;4.50;;;;;;;13.73;88.98;99908.57;1687826;84;21009;-90
2021/09/26 06:41:19;;;;;;;17.67;5.37;;;;;;;13.73;88.85;99905.88;1687626;84;21084;-90
2021/09/26 06:43:46;;;;;;;8.33;4.65;;;;;;;13.75;88.65;99915.89;1672077;83;21030;-87
2021/09/26 06:46:12;;;;;;;8.95;3.98;;;;;;;13.79;88.79;99912.93;1656622;86;21526;-90
2021/09/26 06:48:39;;;;;;;10.82;4.50;;;;;;;13.84;88.93;99920.52;1656454;85;21081;-87
2021/09/26 06:51:05;;;;;;;7.35;3.60;;;;;;;13.89;88.55;99925.95;1667584;85;21018;-91
2021/09/26 06:53:31;;;;;;;10.30;4.55;;;;;;;13.90;88.13;99918.11;1694271;83;21155;-87
2021/09/26 06:55:58;;;;;;;6.95;4.28;;;;;;;13.93;88.21;99926.22;1663917;83;20906;-88
2021/09/26 06:58:24;;;;;;;13.65;4.67;;;;;;;13.95;87.85;99922.73;1656724;86;21487;-90
2021/09/26 07:00:51;;;;;;;8.23;3.65;;;;;;;13.98;87.59;99934.34;1656677;85;20967;-89
2021/09/26 07:03:17;;;;;;;9.78;3.92;;;;;;;13.99;87.51;99915.70;1659913;85;21102;-82
2021/09/26 07:05:44;;;;;;;10.32;3.75;;;;;;;14.01;87.23;99922.98;1676196;85;21465;-83
2021/09/26 07:08:10;;;;;;;5.97;3.87;;;;;;;14.05;87.07;99917.88;1679337;85;21593;-81
2021/09/26 07:10:36;;;;;;;8.25;4.12;;;;;;;14.08;86.58;99935.73;1661319;85;21008;-86
2021/09/26 07:13:03;;;;;;;14.13;3.70;;;;;;;14.09;86.12;99931.14;1680834;84;21576;-83
2021/09/26 07:15:29;;;;;;;10.20;5.33;;;;;;;14.06;85.60;99955.46;1688275;84;20915;-86
2021/09/26 07:17:57;;;;;;;10.60;4.05;;;;;;;14.05;85.36;99937.63;1708294;83;20991;-81
2021/09/26 07:20:27;;;;;;;11.63;5.10;;;;;;;14.07;85.18;99954.92;1700952;83;20999;-82
2021/09/26 07:22:54;;;;;;;14.55;4.85;;;;;;;14.07;84.81;99933.28;1654776;85;21045;-83
2021/09/26 07:25:20;;;;;;;8.88;4.90;;;;;;;14.10;85.22;99934.13;1675407;85;21089;-83
2021/09/26 07:27:46;;;;;;;14.47;4.17;;;;;;;14.15;85.11;99942.25;1675780;85;21010;-80
2021/09/26 07:30:14;;;;;;;9.60;4.67;;;;;;;14.17;84.69;99954.42;1675854;85;21157;-80
2021/09/26 07:32:40;;;;;;;13.55;5.05;;;;;;;14.21;84.97;99951.98;1649313;85;20962;-79
2021/09/26 07:35:09;;;;;;;8.63;4.45;;;;;;;14.25;83.78;99950.37;1675654;85;21539;-78
2021/09/26 07:37:35;;;;;;;13.80;5.33;;;;;;;14.29;83.29;99950.13;1708933;83;21016;-79
2021/09/26 07:40:03;;;;;;;10.85;4.37;;;;;;;14.33;83.38;99939.04;1716651;82;21099;-80
2021/09/26 07:42:30;;;;;;;13.22;4.90;;;;;;;14.41;83.11;99964.23;1715511;83;21132;-81
2021/09/26 07:45:02;;;;;;;7.28;4.35;;;;;;;14.50;81.82;99948.28;1684023;84;20948;-80
2021/09/26 07:47:25;;;;;;;11.73;4.17;;;;;;;14.57;81.98;99955.07;1695821;84;20969;-81
2021/09/26 07:49:52;;;;;;;9.63;4.42;;;;;;;14.66;81.85;99946.68;1680129;84;21067;-82
2021/09/26 07:52:19;;;;;;;13.10;4.45;;;;;;;14.72;80.02;99953.70;1680114;84;20964;-82
2021/09/26 07:54:45;;;;;;;10.15;3.77;;;;;;;14.75;78.17;99957.23;1684491;83;21837;-81
2021/09/26 07:57:13;;;;;;;12.88;4.12;;;;;;;14.81;78.57;99947.23;1689033;83;20971;-81
2021/09/26 07:59:41;;;;;;;9.83;3.58;;;;;;;14.87;78.71;99967.78;1693710;84;21074;-77
2021/09/26 08:02:07;;;;;;;7.80;3.85;;;;;;;14.91;77.91;99964.02;1680792;83;21953;-75
2021/09/26 08:04:35;;;;;;;9.88;3.58;;;;;;;14.91;77.18;99966.19;1676837;84;21115;-75
2021/09/26 08:07:03;;;;;;;10.25;4.03;;;;;;;14.95;76.64;99983.52;1644965;86;21623;-81
2021/09/26 08:09:30;;;;;;;9.38;3.30;;;;;;;14.98;76.55;99964.53;1667712;85;20933;-82
2021/09/26 08:11:56;;;;;;;9.73;4.03;;;;;;;15.03;76.68;99982.14;1674527;85;21019;-82
2021/09/26 08:14:23;;;;;;;8.55;2.60;;;;;;;15.07;76.37;100000.29;1677515;85;20991;-83
2021/09/26 08:16:49;;;;;;;14.87;5.05;;;;;;;15.10;74.69;99995.70;1688380;84;21010;-90
2021/09/26 08:19:16;;;;;;;9.90;3.35;;;;;;;15.09;74.77;100000.03;1687859;84;21512;-86
2021/09/26 08:21:42;;;;;;;7.55;3.40;;;;;;;15.10;75.00;99982.70;1715024;83;20973;-85
2021/09/26 08:24:10;;;;;;;8.93;3.35;;;;;;;15.13;74.85;99992.97;1717378;82;21450;-84
2021/09/26 08:26:37;;;;;;;3.77;2.52;;;;;;;15.19;73.53;99972.39;1716250;82;20995;-90
2021/09/26 08:29:03;;;;;;;9.10;3.20;;;;;;;15.24;71.81;99991.35;1709866;82;21024;-82
2021/09/26 08:31:30;;;;;;;8.23;3.40;;;;;;;15.23;71.67;100010.05;1695558;82;21098;-86
2021/09/26 08:33:57;;;;;;;12.25;5.10;;;;;;;15.23;72.31;99976.17;1682619;84;21067;-85
2021/09/26 08:36:23;;;;;;;8.58;3.20;;;;;;;15.27;72.33;99968.30;1687250;85;20924;-86
2021/09/26 08:38:50;;;;;;;7.53;2.80;;;;;;;15.30;71.65;99983.22;1677420;85;21046;-83
2021/09/26 08:41:17;;;;;;;7.60;3.17;;;;;;;15.34;70.90;100002.72;1688671;83;20989;-88
2021/09/26 08:43:49;;;;;;;8.88;3.60;;;;;;;15.40;71.45;99972.33;1714168;83;21010;-86
2021/09/26 08:46:16;;;;;;;14.25;3.67;;;;;;;15.43;70.21;99970.44;1717038;82;20921;-88
2021/09/26 08:48:42;;;;;;;14.25;3.05;;;;;;;15.47;69.48;99981.00;1717214;82;21020;-85
2021/09/26 08:51:11;;;;;;;11.08;4.30;;;;;;;15.51;69.34;99967.19;1707054;83;21063;-83
2021/09/26 08:53:39;;;;;;;7.80;2.98;;;;;;;15.56;68.34;99975.31;1712988;82;21476;-86
2021/09/26 08:56:07;;;;;;;8.18;3.10;;;;;;;15.61;69.00;99986.96;1690568;84;20973;-87
2021/09/26 08:58:37;;;;;;;10.40;3.67;;;;;;;15.68;68.51;99993.46;1709851;83;20958;-85
2021/09/26 09:01:04;;;;;;;13.08;3.83;;;;;;;15.73;67.84;99981.78;1705749;84;20926;-83
2021/09/26 09:03:30;;;;;;;10.65;3.80;;;;;;;15.74;67.39;99985.55;1696701;83;21005;-85
2021/09/26 09:05:56;;;;;;;7.37;4.05;;;;;;;15.78;67.60;100004.83;1688972;84;21560;-85
2021/09/26 09:08:24;;;;;;;10.80;2.85;;;;;;;15.76;66.62;100031.39;1695302;84;21120;-85
2021/09/26 09:10:59;;;;;;;11.48;3.52;;;;;;;15.78;67.32;99985.27;1682065;84;21077;-82
2021/09/26 09:13:41;;;;;;;12.47;3.05;;;;;;;15.81;65.05;99983.38;1702087;82;21538;-83
2021/09/26 09:16:13;;;;;;;12.73;3.75;;;;;;;15.86;64.40;100031.37;1685897;84;20991;-86
2021/09/26 09:18:50;;;;;;;8.93;4.43;;;;;;;15.85;64.69;99988.51;1677391;85;21491;-85
2021/09/26 09:21:33;;;;;;;11.63;3.25;;;;;;;15.83;65.22;99991.21;1687072;84;21859;-78
2021/09/26 09:24:25;;;;;;;7.92;2.72;;;;;;;15.84;65.90;99984.16;1667624;85;21085;-85
2021/09/26 09:26:49;;;;;;;11.70;3.27;;;;;;;15.89;66.14;99988.22;1684208;85;20971;-89
2021/09/26 09:29:19;;;;;;;6.50;3.40;;;;;;;15.99;64.75;99980.04;1663248;85;21042;-90
2021/09/26 09:31:55;;;;;;;8.80;3.45;;;;;;;16.12;65.47;99972.64;1662856;85;21053;-88
2021/09/26 09:34:35;;;;;;;5.05;2.20;;;;;;;16.26;63.63;99985.63;1680511;84;21704;-88
2021/09/26 09:37:18;;;;;;;5.50;2.47;;;;;;;16.31;62.14;99966.56;1661018;84;20978;-86
2021/09/26 09:40:10;;;;;;;10.93;3.35;;;;;;;16.38;62.12;99994.22;1678096;83;21042;-85
2021/09/26 09:42:42;;;;;;;8.90;3.33;;;;;;;16.38;61.32;99982.01;1658345;86;21030;-80
2021/09/26 09:45:37;;;;;;;12.10;3.45;;;;;;;16.33;60.98;99996.42;1684078;84;21071;-80
2021/09/26 09:48:17;;;;;;;9.35;3.15;;;;;;;16.31;61.08;99982.31;1678024;85;21542;-80
2021/09/26 09:51:02;;;;;;;11.18;2.65;;;;;;;16.29;61.49;100009.48;1661903;85;22258;-80
2021/09/26 09:53:36;;;;;;;9.68;3.33;;;;;;;16.26;61.60;100001.34;1680751;85;21092;-83
2021/09/26 09:56:20;;;;;;;7.87;2.30;;;;;;;16.28;60.95;100003.23;1662151;85;20982;-82
2021/09/26 09:58:52;;;;;;;8.23;3.47;;;;;;;16.30;60.32;99999.71;1692996;84;21107;-77
2021/09/26 10:01:32;;;;;;;6.30;2.65;;;;;;;16.34;60.14;99998.59;1662610;86;21290;-81
2021/09/26 10:04:00;;;;;;;9.20;2.87;;;;;;;16.34;59.61;100004.84;1672407;85;21061;-83
2021/09/26 10:06:44;;;;;;;12.07;3.98;;;;;;;16.38;59.74;99999.66;1680050;84;20939;-80
2021/09/26 10:09:21;;;;;;;6.37;3.80;;;;;;;16.40;59.48;100011.84;1690854;84;21030;-81
2021/09/26 10:12:00;;;;;;;12.40;2.90;;;;;;;16.46;59.36;100018.88;1705319;83;21039;-76
2021/09/26 10:14:32;;;;;;;10.65;2.83;;;;;;;16.46;59.65;100005.30;1681289;84;21795;-78
2021/09/26 10:17:01;;;;;;;13.32;3.15;;;;;;;16.45;59.90;100015.10;1693781;84;21002;-81
2021/09/26 10:19:28;;;;;;;8.80;3.25;;;;;;;16.47;59.85;100008.83;1682981;83;20999;-82
2021/09/26 10:22:00;;;;;;;7.92;3.12;;;;;;;16.51;59.87;100012.06;1681478;84;21515;-82
2021/09/26 10:24:31;;;;;;;7.47;3.27;;;;;;;16.58;59.18;99991.42;1682520;84;21507;-82
2021/09/26 10:26:58;;;;;;;8.50;3.30;;;;;;;16.66;59.61;100002.22;1694096;83;21064;-82
2021/09/26 10:29:25;;;;;;;5.42;2.40;;;;;;;16.76;59.79;100000.25;1658096;84;20963;-79
2021/09/26 10:31:51;;;;;;;8.15;3.45;;;;;;;16.85;58.43;100003.17;1708707;83;21487;-81
2021/09/26 10:34:20;;;;;;;15.03;3.10;;;;;;;16.80;58.37;100010.81;1667896;85;21002;-81
2021/09/26 10:36:50;;;;;;;12.43;2.33;;;;;;;16.71;58.43;100000.83;1696713;84;21018;-80
2021/09/26 10:39:16;;;;;;;19.52;3.55;;;;;;;16.65;58.30;100001.41;1680790;84;21143;-80
2021/09/26 10:42:13;;;;;;;11.93;3.77;;;;;;;16.64;58.44;99992.20;1683015;84;21005;-79
2021/09/26 10:44:46;;;;;;;7.85;2.90;;;;;;;16.67;57.61;100001.95;1673858;84;21007;-80
2021/09/26 10:47:23;;;;;;;5.50;2.70;;;;;;;16.69;57.16;99998.38;1695420;84;21065;-79
2021/09/26 10:50:13;;;;;;;4.70;2.17;;;;;;;16.74;55.57;100013.87;1678768;84;21562;-78
2021/09/26 10:52:50;;;;;;;7.20;2.15;;;;;;;16.75;55.49;100005.41;1635765;85;21074;-75
2021/09/26 10:55:29;;;;;;;7.12;2.33;;;;;;;16.78;55.86;100003.51;1677557;84;21042;-75
2021/09/26 10:58:09;;;;;;;7.50;3.22;;;;;;;16.85;55.88;99999.09;1691062;84;20947;-81
2021/09/26 11:00:50;;;;;;;5.58;2.33;;;;;;;16.90;55.69;99998.51;1692175;84;20979;-81
2021/09/26 11:03:24;;;;;;;7.83;2.55;;;;;;;17.00;55.51;100002.51;1681710;84;20974;-87
2021/09/26 11:05:51;;;;;;;4.15;1.90;;;;;;;17.10;55.42;99985.30;1684355;84;21022;-83
2021/09/26 11:08:29;;;;;;;6.65;2.58;;;;;;;17.19;55.48;99973.27;1690150;84;21021;-83
2021/09/26 11:10:57;;;;;;;2.85;1.90;;;;;;;17.34;55.78;100015.27;1690406;84;21098;-80
2021/09/26 11:13:35;;;;;;;6.33;2.65;;;;;;;17.38;54.48;100006.24;1704189;84;21572;-79
2021/09/26 11:16:17;;;;;;;6.22;2.55;;;;;;;17.42;54.02;99992.33;1670127;85;21590;-81
2021/09/26 11:19:03;;;;;;;8.40;2.33;;;;;;;17.41;54.99;99988.53;1665120;85;21022;-88
2021/09/26 11:21:42;;;;;;;6.58;2.98;;;;;;;17.47;55.02;99983.85;1695781;84;20966;-87
2021/09/26 11:24:13;;;;;;;11.48;2.25;;;;;;;17.56;55.08;99982.94;1679462;84;21523;-82
2021/09/26 11:27:09;;;;;;;8.88;2.40;;;;;;;17.63;55.20;99983.45;1691549;84;20931;-78
2021/09/26 11:29:48;;;;;;;9.75;3.25;;;;;;;17.67;54.07;99981.77;1655775;84;21054;-80
2021/09/26 11:32:46;;;;;;;9.98;3.12;;;;;;;17.70;54.19;99978.45;1645797;85;21141;-81
2021/09/26 11:35:27;;;;;;;6.95;2.70;;;;;;;17.68;54.34;99965.70;1646059;84;21506;-83
2021/09/26 11:37:54;;;;;;;7.95;3.30;;;;;;;17.72;54.13;99989.05;1701146;82;21018;-84
2021/09/26 11:40:29;;;;;;;8.10;2.65;;;;;;;17.70;53.73;99990.70;1664238;85;21611;-86
2021/09/26 11:42:52;;;;;;;7.40;2.65;;;;;;;17.73;53.97;99979.25;1675518;84;20983;-89